createdAt,value
2022-09-30T00:00:19.744Z,13.68
2022-09-30T00:03:04.521Z,12.77
2022-09-30T00:06:08.109Z,14.20
2022-09-30T00:08:54.340Z,13.57
2022-09-30T00:11:40.915Z,13.85
2022-09-30T00:14:26.196Z,13.30
2022-09-30T00:17:11.335Z,12.20
2022-09-30T00:19:55.858Z,11.73
2022-09-30T00:22:40.947Z,11.85
2022-09-30T00:25:25.672Z,12.10
2022-09-30T00:28:10.702Z,12.23
2022-09-30T00:31:04.818Z,11.23
2022-09-30T00:34:06.301Z,13.10
2022-09-30T00:36:53.603Z,14.95
2022-09-30T00:39:38.473Z,15.55
2022-09-30T00:42:25.900Z,15.35
2022-09-30T00:45:12.317Z,13.65
2022-09-30T00:48:15.981Z,14.13
2022-09-30T00:51:02.318Z,14.52
2022-09-30T00:53:52.063Z,13.57
2022-09-30T00:56:42.123Z,13.65
2022-09-30T00:59:35.694Z,12.05
2022-09-30T01:02:20.735Z,12.05
2022-09-30T01:05:06.777Z,11.60
2022-09-30T01:07:53.021Z,11.85
2022-09-30T01:10:37.691Z,13.82
2022-09-30T01:13:26.843Z,15.32
2022-09-30T01:16:34.408Z,16.58
2022-09-30T01:19:28.033Z,16.20
2022-09-30T01:22:19.632Z,15.05
2022-09-30T01:25:23.299Z,13.68
2022-09-30T01:28:44.794Z,13.32
2022-09-30T01:31:52.107Z,13.75
2022-09-30T01:35:18.772Z,13.00
2022-09-30T01:38:35.780Z,12.85
2022-09-30T01:41:48.277Z,14.07
2022-09-30T01:44:48.109Z,15.73
2022-09-30T01:47:43.935Z,16.58
2022-09-30T01:51:02.289Z,15.98
2022-09-30T01:53:55.164Z,14.18
2022-09-30T01:56:54.792Z,13.90
2022-09-30T01:59:56.499Z,14.07
2022-09-30T02:02:54.076Z,13.18
2022-09-30T02:05:50.611Z,12.52
2022-09-30T02:08:48.350Z,12.35
2022-09-30T02:11:38.110Z,12.73
2022-09-30T02:14:28.518Z,11.57
2022-09-30T02:17:21.241Z,12.27
2022-09-30T02:20:12.341Z,11.00
2022-09-30T02:23:06.156Z,12.50
2022-09-30T02:26:17.483Z,12.95
2022-09-30T02:29:25.375Z,13.07
2022-09-30T02:32:17.986Z,12.93
2022-09-30T02:35:08.852Z,13.77
2022-09-30T02:37:59.740Z,13.73
2022-09-30T02:40:55.265Z,14.73
2022-09-30T02:43:41.612Z,13.27
2022-09-30T02:47:09.822Z,12.68
2022-09-30T02:50:07.965Z,12.50
2022-09-30T02:53:11.672Z,11.68
2022-09-30T02:56:02.559Z,12.88
2022-09-30T02:58:50.953Z,14.70
2022-09-30T03:01:41.197Z,14.57
2022-09-30T03:04:30.105Z,14.48
2022-09-30T03:07:15.833Z,12.98
2022-09-30T03:10:00.937Z,13.95
2022-09-30T03:12:48.681Z,14.00
2022-09-30T03:16:01.446Z,13.10
2022-09-30T03:19:08.519Z,12.00
2022-09-30T03:22:10.236Z,11.73
2022-09-30T03:25:16.066Z,11.35
2022-09-30T03:28:25.771Z,12.13
2022-09-30T03:31:38.467Z,11.27
2022-09-30T03:34:49.591Z,12.05
2022-09-30T03:37:44.939Z,12.82
2022-09-30T03:40:49.406Z,14.07
2022-09-30T03:43:48.974Z,14.88
2022-09-30T03:46:41.588Z,15.90
2022-09-30T03:49:30.519Z,14.95
2022-09-30T03:52:16.491Z,13.95
2022-09-30T03:55:04.159Z,14.73
2022-09-30T03:57:50.588Z,14.38
2022-09-30T04:00:36.458Z,14.80
2022-09-30T04:03:22.771Z,15.25
2022-09-30T04:06:12.236Z,14.38
2022-09-30T04:08:57.255Z,15.07
2022-09-30T04:11:42.597Z,14.48
2022-09-30T04:14:27.661Z,13.88
2022-09-30T04:17:12.784Z,13.00
2022-09-30T04:19:58.051Z,13.18
2022-09-30T04:22:42.898Z,12.60
2022-09-30T04:25:28.425Z,13.23
2022-09-30T04:28:13.305Z,12.77
2022-09-30T04:30:59.555Z,13.20
2022-09-30T04:33:44.776Z,13.43
2022-09-30T04:36:29.514Z,14.30
2022-09-30T04:39:14.502Z,13.30
2022-09-30T04:41:59.531Z,13.57
2022-09-30T04:44:44.358Z,13.75
2022-09-30T04:47:29.622Z,14.30
2022-09-30T04:50:14.454Z,13.68
2022-09-30T04:52:59.578Z,13.40
2022-09-30T04:55:45.305Z,14.38
2022-09-30T04:58:36.664Z,15.38
2022-09-30T05:01:22.704Z,14.32
2022-09-30T05:04:08.587Z,12.07
2022-09-30T05:06:53.389Z,11.00
2022-09-30T05:09:38.626Z,10.82
2022-09-30T05:12:25.410Z,10.05
2022-09-30T05:15:11.013Z,10.13
2022-09-30T05:18:01.319Z,8.95
2022-09-30T05:20:52.017Z,8.10
2022-09-30T05:23:37.779Z,7.50
2022-09-30T05:26:23.417Z,7.45
2022-09-30T05:29:09.891Z,7.68
2022-09-30T05:31:57.951Z,7.80
2022-09-30T05:34:43.493Z,6.90
2022-09-30T05:37:29.182Z,7.28
2022-09-30T05:40:14.329Z,8.00
2022-09-30T05:43:00.369Z,7.68
2022-09-30T05:45:55.863Z,7.35
2022-09-30T05:48:40.801Z,8.13
2022-09-30T05:51:25.808Z,7.90
2022-09-30T05:54:11.359Z,7.30
2022-09-30T05:56:57.255Z,7.65
2022-09-30T05:59:43.417Z,8.35
2022-09-30T06:02:28.649Z,7.70
2022-09-30T06:05:14.209Z,7.80
2022-09-30T06:08:01.797Z,8.52
2022-09-30T06:10:52.018Z,8.07
2022-09-30T06:16:23.554Z,7.78
2022-09-30T06:19:08.514Z,7.53
2022-09-30T06:21:53.510Z,7.38
2022-09-30T06:24:38.428Z,7.55
2022-09-30T06:27:24.533Z,7.13
2022-09-30T06:30:10.417Z,7.07
2022-09-30T06:32:57.080Z,6.88
2022-09-30T06:35:42.902Z,7.55
2022-09-30T06:38:28.282Z,8.07
2022-09-30T06:41:15.053Z,8.68
2022-09-30T06:44:03.252Z,7.72
2022-09-30T06:46:54.223Z,9.65
2022-09-30T06:49:47.881Z,9.50
2022-09-30T06:52:35.481Z,7.35
2022-09-30T06:55:23.811Z,7.00
2022-09-30T06:58:14.476Z,6.70
2022-09-30T07:01:06.087Z,6.40
2022-09-30T07:04:02.711Z,6.50
2022-09-30T07:06:47.605Z,6.53
2022-09-30T07:09:42.942Z,6.18
2022-09-30T07:12:41.965Z,5.90
2022-09-30T07:15:29.140Z,6.35
2022-09-30T07:18:13.967Z,6.32
2022-09-30T07:20:58.481Z,6.28
2022-09-30T07:23:47.274Z,6.45
2022-09-30T07:26:32.228Z,6.38
2022-09-30T07:29:17.208Z,6.07
2022-09-30T07:32:03.870Z,6.05
2022-09-30T07:34:48.909Z,5.63
2022-09-30T07:37:35.575Z,5.60
2022-09-30T07:40:20.248Z,6.22
2022-09-30T07:43:05.131Z,6.30
2022-09-30T07:45:51.006Z,7.03
2022-09-30T07:48:47.164Z,6.53
2022-09-30T07:51:38.520Z,7.20
2022-09-30T07:54:28.112Z,6.78
2022-09-30T07:57:13.379Z,7.38
2022-09-30T08:00:30.232Z,7.10
2022-09-30T08:03:15.364Z,7.03
2022-09-30T08:06:06.013Z,7.40
2022-09-30T08:08:53.520Z,7.15
2022-09-30T08:11:39.148Z,7.00
2022-09-30T08:14:26.788Z,7.57
2022-09-30T08:17:11.860Z,6.68
2022-09-30T08:19:56.756Z,7.78
2022-09-30T08:22:41.657Z,7.43
2022-09-30T08:25:28.147Z,7.72
2022-09-30T08:28:13.872Z,6.75
2022-09-30T08:31:16.536Z,6.78
2022-09-30T08:40:21.454Z,6.65
2022-09-30T08:43:20.968Z,6.32
2022-09-30T08:50:19.923Z,6.82
2022-09-30T08:53:11.229Z,6.88
2022-09-30T08:59:41.282Z,6.85
2022-09-30T09:02:29.617Z,6.45
2022-09-30T09:06:13.131Z,5.70
2022-09-30T09:09:48.342Z,5.60
2022-09-30T09:12:34.272Z,7.38
2022-09-30T09:15:22.030Z,7.13
2022-09-30T09:18:28.657Z,7.30
2022-09-30T09:21:34.983Z,8.40
2022-09-30T09:24:42.237Z,8.07
2022-09-30T09:27:52.333Z,7.47
2022-09-30T09:30:47.585Z,7.40
2022-09-30T09:33:40.397Z,6.90
2022-09-30T09:36:46.513Z,7.38
2022-09-30T09:40:00.407Z,6.97
2022-09-30T09:42:50.520Z,6.95
2022-09-30T09:46:27.932Z,6.20
2022-09-30T09:49:33.132Z,6.35
2022-09-30T09:52:42.498Z,6.35
2022-09-30T09:58:21.594Z,6.00
2022-09-30T10:01:32.261Z,6.40
2022-09-30T10:04:18.570Z,6.10
2022-09-30T10:07:14.647Z,5.55
2022-09-30T10:10:24.702Z,5.50
2022-09-30T10:13:24.932Z,6.13
2022-09-30T10:16:28.417Z,7.60
2022-09-30T10:19:34.128Z,6.82
2022-09-30T10:22:25.093Z,6.28
2022-09-30T10:25:15.333Z,6.38
2022-09-30T10:28:18.559Z,6.72
2022-09-30T10:31:23.796Z,6.20
2022-09-30T10:34:27.681Z,6.50
2022-09-30T10:37:22.933Z,6.35
2022-09-30T10:40:16.210Z,6.43
2022-09-30T10:43:01.300Z,6.97
2022-09-30T10:46:13.469Z,6.53
2022-09-30T10:49:11.980Z,6.70
2022-09-30T10:51:59.624Z,7.25
2022-09-30T10:54:54.495Z,6.88
2022-09-30T10:57:39.725Z,6.28
2022-09-30T11:00:27.299Z,5.97
2022-09-30T11:03:23.465Z,5.40
2022-09-30T11:06:11.256Z,5.88
2022-09-30T11:09:39.459Z,5.32
2022-09-30T11:12:46.235Z,5.30
2022-09-30T11:16:10.248Z,5.00
2022-09-30T11:19:12.151Z,5.07
2022-09-30T11:22:11.358Z,4.88
2022-09-30T11:24:56.928Z,6.35
2022-09-30T11:27:48.934Z,6.47
2022-09-30T11:31:07.431Z,6.88
2022-09-30T11:34:08.931Z,7.20
2022-09-30T11:37:13.148Z,6.75
2022-09-30T11:40:04.809Z,7.78
2022-09-30T11:43:08.591Z,6.97
2022-09-30T11:46:13.985Z,6.93
2022-09-30T11:49:26.768Z,7.07
2022-09-30T11:52:42.727Z,7.10
2022-09-30T11:55:46.119Z,6.75
2022-09-30T11:58:46.986Z,7.03
2022-09-30T12:01:45.080Z,7.40
2022-09-30T12:04:43.771Z,7.63
2022-09-30T12:07:40.039Z,7.00
2022-09-30T12:10:33.355Z,7.85
2022-09-30T12:13:37.829Z,7.65
2022-09-30T12:16:31.410Z,7.32
2022-09-30T12:19:43.236Z,7.47
2022-09-30T12:22:35.983Z,6.82
2022-09-30T12:25:26.254Z,7.20
2022-09-30T12:28:47.818Z,7.28
2022-09-30T12:32:03.453Z,6.97
2022-09-30T12:34:47.999Z,7.47
2022-09-30T12:37:46.095Z,7.03
2022-09-30T12:40:52.734Z,7.38
2022-09-30T12:43:47.318Z,7.25
2022-09-30T12:46:41.447Z,6.55
2022-09-30T12:49:28.758Z,6.25
2022-09-30T12:52:17.552Z,6.93
2022-09-30T12:55:21.722Z,6.57
2022-09-30T12:58:21.504Z,6.55
2022-09-30T13:01:17.591Z,6.45
2022-09-30T13:04:02.506Z,6.45
2022-09-30T13:06:46.917Z,6.18
2022-09-30T13:09:37.675Z,6.18
2022-09-30T13:12:43.983Z,5.95
2022-09-30T13:15:28.664Z,6.95
2022-09-30T13:18:19.820Z,6.10
2022-09-30T13:21:04.780Z,6.30
2022-09-30T13:23:54.477Z,5.93
2022-09-30T13:26:44.057Z,6.10
2022-09-30T13:29:34.618Z,6.30
2022-09-30T13:35:57.635Z,5.75
2022-09-30T13:38:42.440Z,5.63
2022-09-30T13:41:27.275Z,5.88
2022-09-30T13:44:21.030Z,5.75
2022-09-30T13:47:26.576Z,6.25
2022-09-30T13:50:26.655Z,5.80
2022-09-30T13:53:32.377Z,6.10
2022-09-30T13:56:23.277Z,6.25
2022-09-30T13:59:23.206Z,6.18
2022-09-30T14:02:39.222Z,5.50
2022-09-30T14:05:34.489Z,5.68
2022-09-30T14:09:05.801Z,6.03
2022-09-30T14:12:11.718Z,6.28
2022-09-30T14:15:26.127Z,6.40
2022-09-30T14:18:35.723Z,6.18
2022-09-30T14:21:48.144Z,6.68
2022-09-30T14:24:37.553Z,6.32
2022-09-30T14:30:24.236Z,6.97
2022-09-30T14:33:23.698Z,6.55
2022-09-30T14:36:15.802Z,6.65
2022-09-30T14:39:02.968Z,7.13
2022-09-30T14:41:52.930Z,6.45
2022-09-30T14:44:38.189Z,6.50
2022-09-30T14:47:26.221Z,7.30
2022-09-30T14:50:19.858Z,6.97
2022-09-30T14:53:04.555Z,7.00
2022-09-30T14:55:49.624Z,8.00
2022-09-30T14:58:43.334Z,7.28
2022-09-30T15:01:34.512Z,7.57
2022-09-30T15:04:32.189Z,7.47
2022-09-30T15:07:17.402Z,7.22
2022-09-30T15:10:02.562Z,8.07
2022-09-30T15:12:49.800Z,7.60
2022-09-30T15:15:36.962Z,7.38
2022-09-30T15:18:30.677Z,8.02
2022-09-30T15:21:16.577Z,8.02
2022-09-30T15:24:02.184Z,7.30
2022-09-30T15:26:48.870Z,7.47
2022-09-30T15:29:33.762Z,7.60
2022-09-30T15:32:23.906Z,7.55
2022-09-30T15:35:20.342Z,7.28
2022-09-30T15:38:15.608Z,7.38
2022-09-30T15:41:06.605Z,7.38
2022-09-30T15:43:53.415Z,8.07
2022-09-30T15:46:40.033Z,7.65
2022-09-30T15:49:38.378Z,8.02
2022-09-30T15:52:28.222Z,8.32
2022-09-30T15:55:37.336Z,8.02
2022-09-30T15:58:36.965Z,7.97
2022-09-30T16:01:26.003Z,8.35
2022-09-30T16:04:16.713Z,8.02
2022-09-30T16:07:10.413Z,7.80
2022-09-30T16:09:58.443Z,7.68
2022-09-30T16:12:48.701Z,8.00
2022-09-30T16:15:39.931Z,7.65
2022-09-30T16:18:34.020Z,7.93
2022-09-30T16:21:43.687Z,7.72
2022-09-30T16:24:31.696Z,7.82
2022-09-30T16:27:22.762Z,7.57
2022-09-30T16:30:13.557Z,8.50
2022-09-30T16:33:04.102Z,9.38
2022-09-30T16:35:49.135Z,8.70
2022-09-30T16:38:34.142Z,9.45
2022-09-30T16:41:19.101Z,9.23
2022-09-30T16:44:04.115Z,9.77
2022-09-30T16:46:49.041Z,9.82
2022-09-30T16:49:34.157Z,9.40
2022-09-30T16:52:18.757Z,10.50
2022-09-30T16:55:03.636Z,10.32
2022-09-30T16:57:49.682Z,10.38
2022-09-30T17:00:34.380Z,10.32
2022-09-30T17:03:21.006Z,11.30
2022-09-30T17:06:05.714Z,10.52
2022-09-30T17:08:52.901Z,11.70
2022-09-30T17:11:37.874Z,11.50
2022-09-30T17:14:23.116Z,11.45
2022-09-30T17:17:13.171Z,10.82
2022-09-30T17:19:58.727Z,11.23
2022-09-30T17:22:44.570Z,11.05
2022-09-30T17:25:29.297Z,10.35
2022-09-30T17:28:14.947Z,10.68
2022-09-30T17:31:00.588Z,10.40
2022-09-30T17:33:45.372Z,11.63
2022-09-30T17:36:30.827Z,12.15
2022-09-30T17:39:16.122Z,11.82
2022-09-30T17:42:19.321Z,11.27
2022-09-30T17:45:04.892Z,13.40
2022-09-30T17:47:49.898Z,13.13
2022-09-30T17:50:37.312Z,12.18
2022-09-30T17:53:23.262Z,11.27
2022-09-30T17:56:19.640Z,11.60
2022-09-30T17:59:04.970Z,11.52
2022-09-30T18:01:50.055Z,12.00
2022-09-30T18:04:37.097Z,11.90
2022-09-30T18:07:23.142Z,11.18
2022-09-30T18:10:08.338Z,11.48
2022-09-30T18:12:54.449Z,11.48
2022-09-30T18:15:39.080Z,12.88
2022-09-30T18:18:24.006Z,13.43
2022-09-30T18:21:11.101Z,13.65
2022-09-30T18:24:00.171Z,16.80
2022-09-30T18:26:45.077Z,17.85
2022-09-30T18:29:30.034Z,19.50
2022-09-30T18:32:16.963Z,19.60
2022-09-30T18:35:06.346Z,19.38
2022-09-30T18:37:53.071Z,17.38
2022-09-30T18:40:42.535Z,16.33
2022-09-30T18:43:27.353Z,14.30
2022-09-30T18:46:13.240Z,14.95
2022-09-30T18:48:58.576Z,15.02
2022-09-30T18:51:43.141Z,17.70
2022-09-30T18:54:29.357Z,16.90
2022-09-30T18:57:15.820Z,20.30
2022-09-30T19:00:01.515Z,28.13
2022-09-30T19:02:46.384Z,26.77
2022-09-30T19:05:31.588Z,26.88
2022-09-30T19:08:16.400Z,23.58
2022-09-30T19:11:13.507Z,18.20
2022-09-30T19:14:00.673Z,16.75
2022-09-30T19:16:45.683Z,16.08
2022-09-30T19:19:30.318Z,18.40
2022-09-30T19:22:15.271Z,20.75
2022-09-30T19:25:01.484Z,19.90
2022-09-30T19:27:48.796Z,20.85
2022-09-30T19:30:33.744Z,16.88
2022-09-30T19:33:20.708Z,17.63
2022-09-30T19:36:14.511Z,18.30
2022-09-30T19:39:10.533Z,18.70
2022-09-30T19:41:59.101Z,17.13
2022-09-30T19:44:45.042Z,18.33
2022-09-30T19:47:34.241Z,21.38
2022-09-30T19:50:19.623Z,24.00
2022-09-30T19:53:04.495Z,21.42
2022-09-30T19:56:01.759Z,17.50
2022-09-30T19:58:51.746Z,16.65
2022-09-30T20:01:37.404Z,16.17
2022-09-30T20:04:23.423Z,15.75
2022-09-30T20:07:08.079Z,15.00
2022-09-30T20:09:53.055Z,15.43
2022-09-30T20:12:38.146Z,14.63
2022-09-30T20:15:46.150Z,15.43
2022-09-30T20:18:32.375Z,15.18
2022-09-30T20:21:17.347Z,15.68
2022-09-30T20:24:02.249Z,14.77
2022-09-30T20:26:47.416Z,14.32
2022-09-30T20:29:32.258Z,13.30
2022-09-30T20:32:16.961Z,13.70
2022-09-30T20:35:02.590Z,13.50
2022-09-30T20:37:47.415Z,13.02
2022-09-30T20:40:32.966Z,13.80
2022-09-30T20:43:17.815Z,13.48
2022-09-30T20:46:04.636Z,14.10
2022-09-30T20:48:50.242Z,15.10
2022-09-30T20:51:35.700Z,15.20
2022-09-30T20:54:21.918Z,14.73
2022-09-30T20:57:07.907Z,14.00
2022-09-30T20:59:52.765Z,13.02
2022-09-30T21:02:37.835Z,13.93
2022-09-30T21:05:23.197Z,13.80
2022-09-30T21:08:08.190Z,13.18
2022-09-30T21:10:53.452Z,13.23
2022-09-30T21:13:42.890Z,13.63
2022-09-30T21:16:28.922Z,13.35
2022-09-30T21:19:13.638Z,13.20
2022-09-30T21:21:59.156Z,12.88
2022-09-30T21:24:44.007Z,13.05
2022-09-30T21:27:29.114Z,13.35
2022-09-30T21:30:15.880Z,13.10
2022-09-30T21:33:00.990Z,13.93
2022-09-30T21:35:46.765Z,13.88
2022-09-30T21:38:33.376Z,14.52
2022-09-30T21:41:19.108Z,13.68
2022-09-30T21:44:04.203Z,13.75
2022-09-30T21:46:50.115Z,14.65
2022-09-30T21:49:35.349Z,13.45
2022-09-30T21:52:22.566Z,14.57
2022-09-30T21:55:08.131Z,13.77
2022-09-30T21:57:53.473Z,14.90
2022-09-30T22:00:38.220Z,14.77
2022-09-30T22:03:23.722Z,14.18
2022-09-30T22:06:10.067Z,15.05
2022-09-30T22:08:55.085Z,15.50
2022-09-30T22:11:40.955Z,15.73
2022-09-30T22:14:26.214Z,17.08
2022-09-30T22:17:11.301Z,16.42
2022-09-30T22:19:57.164Z,15.13
2022-09-30T22:22:42.202Z,16.65
2022-09-30T22:25:30.024Z,16.85
2022-09-30T22:28:14.841Z,16.40
2022-09-30T22:31:11.578Z,15.73
2022-09-30T22:34:17.245Z,16.42
2022-09-30T22:37:20.724Z,15.98
2022-09-30T22:40:06.078Z,14.98
2022-09-30T22:42:52.410Z,15.60
2022-09-30T22:45:37.136Z,15.43
2022-09-30T22:48:22.075Z,15.85
2022-09-30T22:51:14.841Z,15.27
2022-09-30T22:54:00.895Z,14.80
2022-09-30T22:56:47.077Z,14.27
2022-09-30T22:59:32.039Z,14.70
2022-09-30T23:02:20.599Z,14.77
2022-09-30T23:05:06.492Z,15.75
2022-09-30T23:07:52.521Z,16.00
2022-09-30T23:10:39.315Z,15.13
2022-09-30T23:13:28.696Z,15.15
2022-09-30T23:16:14.421Z,16.45
2022-09-30T23:18:59.907Z,15.52
2022-09-30T23:21:45.016Z,16.40
2022-09-30T23:24:30.701Z,16.23
2022-09-30T23:27:15.478Z,15.85
2022-09-30T23:30:00.498Z,16.58
2022-09-30T23:32:45.190Z,15.75
2022-09-30T23:35:30.534Z,14.77
2022-09-30T23:38:17.247Z,14.43
2022-09-30T23:41:02.137Z,13.93
2022-09-30T23:43:48.027Z,13.57
2022-09-30T23:46:33.431Z,12.85
2022-09-30T23:49:19.455Z,12.35
2022-09-30T23:52:10.466Z,11.00
2022-09-30T23:54:57.579Z,12.70
2022-09-30T23:57:46.355Z,13.02
